sensor_id;sensor_type;location;lat;lon;timestamp;pressure;altitude;pressure_sealevel;temperature;humidity
56630;BME280;42502;40.732;-74.254;2022-12-10T00:01:24;101557.09;;;18.70;39.54
56630;BME280;42502;40.732;-74.254;2022-12-10T00:03:25;101567.97;;;18.71;39.16
56630;BME280;42502;40.732;-74.254;2022-12-10T00:05:26;101566.63;;;18.69;39.22
56630;BME280;42502;40.732;-74.254;2022-12-10T00:07:30;101566.13;;;18.67;39.38
56630;BME280;42502;40.732;-74.254;2022-12-10T00:09:30;101560.53;;;18.67;39.30
56630;BME280;42502;40.732;-74.254;2022-12-10T00:11:31;101552.47;;;18.65;39.31
56630;BME280;42502;40.732;-74.254;2022-12-10T00:13:33;101559.19;;;18.64;39.47
56630;BME280;42502;40.732;-74.254;2022-12-10T00:15:35;101566.28;;;18.61;39.32
56630;BME280;42502;40.732;-74.254;2022-12-10T00:17:36;101563.47;;;18.61;39.15
56630;BME280;42502;40.732;-74.254;2022-12-10T00:19:37;101567.41;;;18.60;39.09
56630;BME280;42502;40.732;-74.254;2022-12-10T00:21:37;101561.28;;;18.58;39.13
56630;BME280;42502;40.732;-74.254;2022-12-10T00:23:39;101564.94;;;18.59;39.15
56630;BME280;42502;40.732;-74.254;2022-12-10T00:25:40;101552.72;;;18.55;38.95
56630;BME280;42502;40.732;-74.254;2022-12-10T00:27:41;101542.34;;;18.55;39.13
56630;BME280;42502;40.732;-74.254;2022-12-10T00:29:43;101554.69;;;18.54;38.83
56630;BME280;42502;40.732;-74.254;2022-12-10T00:31:44;101563.09;;;18.54;39.00
56630;BME280;42502;40.732;-74.254;2022-12-10T00:33:45;101565.91;;;18.54;39.17
56630;BME280;42502;40.732;-74.254;2022-12-10T00:35:47;101561.44;;;18.53;38.88
56630;BME280;42502;40.732;-74.254;2022-12-10T00:37:47;101554.81;;;18.49;38.98
56630;BME280;42502;40.732;-74.254;2022-12-10T00:39:50;101550.56;;;18.52;38.79
56630;BME280;42502;40.732;-74.254;2022-12-10T00:41:51;101550.50;;;18.43;39.00
56630;BME280;42502;40.732;-74.254;2022-12-10T00:43:52;101556.78;;;18.49;38.83
56630;BME280;42502;40.732;-74.254;2022-12-10T00:45:56;101555.44;;;18.46;38.66
56630;BME280;42502;40.732;-74.254;2022-12-10T00:47:58;101561.03;;;18.46;38.72
56630;BME280;42502;40.732;-74.254;2022-12-10T00:49:58;101556.09;;;18.43;39.08
56630;BME280;42502;40.732;-74.254;2022-12-10T00:51:59;101557.25;;;18.42;38.74
56630;BME280;42502;40.732;-74.254;2022-12-10T00:54:00;101564.47;;;18.43;38.87
56630;BME280;42502;40.732;-74.254;2022-12-10T00:56:02;101569.56;;;18.41;38.86
56630;BME280;42502;40.732;-74.254;2022-12-10T00:58:03;101577.16;;;18.40;38.68
56630;BME280;42502;40.732;-74.254;2022-12-10T01:00:05;101573.31;;;18.36;38.79
56630;BME280;42502;40.732;-74.254;2022-12-10T01:02:06;101579.41;;;18.38;38.80
56630;BME280;42502;40.732;-74.254;2022-12-10T01:04:13;101587.00;;;18.38;38.77
56630;BME280;42502;40.732;-74.254;2022-12-10T01:06:26;101591.78;;;18.37;38.85
56630;BME280;42502;40.732;-74.254;2022-12-10T01:08:28;101588.66;;;18.39;38.71
56630;BME280;42502;40.732;-74.254;2022-12-10T01:10:31;101592.59;;;18.38;38.57
56630;BME280;42502;40.732;-74.254;2022-12-10T01:12:32;101584.34;;;18.33;38.85
56630;BME280;42502;40.732;-74.254;2022-12-10T01:14:33;101591.78;;;18.37;38.65
56630;BME280;42502;40.732;-74.254;2022-12-10T01:16:37;101594.03;;;18.35;38.57
56630;BME280;42502;40.732;-74.254;2022-12-10T01:18:38;101598.81;;;18.35;38.38
56630;BME280;42502;40.732;-74.254;2022-12-10T01:20:39;101595.72;;;18.36;38.67
56630;BME280;42502;40.732;-74.254;2022-12-10T01:22:40;101590.44;;;18.35;38.66
56630;BME280;42502;40.732;-74.254;2022-12-10T01:24:41;101579.56;;;18.33;38.37
56630;BME280;42502;40.732;-74.254;2022-12-10T01:26:42;101578.75;;;18.33;38.51
56630;BME280;42502;40.732;-74.254;2022-12-10T01:28:44;101578.22;;;18.31;38.49
56630;BME280;42502;40.732;-74.254;2022-12-10T01:30:45;101576.38;;;18.26;38.66
56630;BME280;42502;40.732;-74.254;2022-12-10T01:32:48;101583.09;;;18.25;38.62
56630;BME280;42502;40.732;-74.254;2022-12-10T01:34:49;101580.63;;;18.23;38.72
56630;BME280;42502;40.732;-74.254;2022-12-10T01:36:52;101579.28;;;18.21;38.44
56630;BME280;42502;40.732;-74.254;2022-12-10T01:38:54;101567.78;;;18.22;38.45
56630;BME280;42502;40.732;-74.254;2022-12-10T01:40:55;101565.94;;;18.18;38.67
56630;BME280;42502;40.732;-74.254;2022-12-10T01:42:56;101567.25;;;18.20;38.69
56630;BME280;42502;40.732;-74.254;2022-12-10T01:45:00;101572.34;;;18.18;38.52
56630;BME280;42502;40.732;-74.254;2022-12-10T01:47:01;101567.56;;;18.19;38.40
56630;BME280;42502;40.732;-74.254;2022-12-10T01:49:11;101558.69;;;18.17;38.33
56630;BME280;42502;40.732;-74.254;2022-12-10T01:51:13;101557.03;;;18.16;38.68
56630;BME280;42502;40.732;-74.254;2022-12-10T01:53:14;101545.66;;;18.12;38.40
56630;BME280;42502;40.732;-74.254;2022-12-10T01:55:48;101558.50;;;18.13;38.63
56630;BME280;42502;40.732;-74.254;2022-12-10T01:57:49;101556.03;;;18.11;38.56
56630;BME280;42502;40.732;-74.254;2022-12-10T02:00:04;101555.81;;;18.08;38.54
56630;BME280;42502;40.732;-74.254;2022-12-10T02:04:29;101570.81;;;18.12;38.29
56630;BME280;42502;40.732;-74.254;2022-12-10T02:13:55;101578.19;;;18.08;38.25
56630;BME280;42502;40.732;-74.254;2022-12-10T02:18:06;101574.88;;;18.06;38.10
56630;BME280;42502;40.732;-74.254;2022-12-10T02:20:16;101566.63;;;18.01;38.38
56630;BME280;42502;40.732;-74.254;2022-12-10T02:22:19;101570.44;;;18.05;37.93
56630;BME280;42502;40.732;-74.254;2022-12-10T02:24:29;101573.84;;;18.02;38.13
56630;BME280;42502;40.732;-74.254;2022-12-10T02:29:17;101573.03;;;18.01;38.28
56630;BME280;42502;40.732;-74.254;2022-12-10T02:31:23;101561.03;;;18.01;37.93
56630;BME280;42502;40.732;-74.254;2022-12-10T02:33:27;101563.28;;;17.99;37.94
56630;BME280;42502;40.732;-74.254;2022-12-10T02:35:33;101562.16;;;18.00;37.99
56630;BME280;42502;40.732;-74.254;2022-12-10T02:37:44;101577.28;;;17.99;38.15
56630;BME280;42502;40.732;-74.254;2022-12-10T02:39:49;101576.78;;;17.97;38.11
56630;BME280;42502;40.732;-74.254;2022-12-10T02:41:53;101569.03;;;17.93;38.21
56630;BME280;42502;40.732;-74.254;2022-12-10T02:43:56;101581.53;;;17.96;38.04
56630;BME280;42502;40.732;-74.254;2022-12-10T02:45:59;101573.44;;;17.94;38.05
56630;BME280;42502;40.732;-74.254;2022-12-10T02:48:04;101580.69;;;17.96;37.75
56630;BME280;42502;40.732;-74.254;2022-12-10T02:50:06;101584.63;;;17.94;37.98
56630;BME280;42502;40.732;-74.254;2022-12-10T02:52:10;101577.41;;;17.93;37.79
56630;BME280;42502;40.732;-74.254;2022-12-10T02:54:41;101586.41;;;17.90;37.89
56630;BME280;42502;40.732;-74.254;2022-12-10T02:56:52;101583.69;;;17.85;37.71
56630;BME280;42502;40.732;-74.254;2022-12-10T02:59:22;101585.84;;;17.88;37.86
56630;BME280;42502;40.732;-74.254;2022-12-10T03:01:38;101595.13;;;17.89;37.90
56630;BME280;42502;40.732;-74.254;2022-12-10T03:03:44;101596.22;;;17.88;37.53
56630;BME280;42502;40.732;-74.254;2022-12-10T03:05:53;101598.19;;;17.87;37.61
56630;BME280;42502;40.732;-74.254;2022-12-10T03:08:19;101599.66;;;17.85;37.63
56630;BME280;42502;40.732;-74.254;2022-12-10T03:12:39;101619.22;;;17.85;37.93
56630;BME280;42502;40.732;-74.254;2022-12-10T03:14:43;101605.34;;;17.80;37.42
56630;BME280;42502;40.732;-74.254;2022-12-10T03:16:54;101630.19;;;17.81;37.79
56630;BME280;42502;40.732;-74.254;2022-12-10T03:19:00;101625.75;;;17.80;37.45
56630;BME280;42502;40.732;-74.254;2022-12-10T03:21:05;101628.84;;;17.79;37.73
56630;BME280;42502;40.732;-74.254;2022-12-10T03:23:09;101621.91;;;17.76;37.56
56630;BME280;42502;40.732;-74.254;2022-12-10T03:25:17;101631.13;;;17.76;37.43
56630;BME280;42502;40.732;-74.254;2022-12-10T03:27:21;101635.06;;;17.75;37.77
56630;BME280;42502;40.732;-74.254;2022-12-10T03:29:28;101634.56;;;17.73;37.41
56630;BME280;42502;40.732;-74.254;2022-12-10T03:31:34;101635.69;;;17.72;37.64
56630;BME280;42502;40.732;-74.254;2022-12-10T03:33:36;101639.59;;;17.71;37.24
56630;BME280;42502;40.732;-74.254;2022-12-10T03:35:40;101651.63;;;17.72;37.33
56630;BME280;42502;40.732;-74.254;2022-12-10T03:37:42;101650.78;;;17.71;37.46
56630;BME280;42502;40.732;-74.254;2022-12-10T03:39:43;101646.34;;;17.70;37.49
56630;BME280;42502;40.732;-74.254;2022-12-10T03:41:49;101657.53;;;17.70;37.40
56630;BME280;42502;40.732;-74.254;2022-12-10T03:43:52;101656.19;;;17.68;37.41
56630;BME280;42502;40.732;-74.254;2022-12-10T03:45:53;101658.97;;;17.68;37.32
56630;BME280;42502;40.732;-74.254;2022-12-10T03:47:54;101655.38;;;17.67;37.28
56630;BME280;42502;40.732;-74.254;2022-12-10T03:49:58;101646.44;;;17.65;37.34
56630;BME280;42502;40.732;-74.254;2022-12-10T03:52:08;101640.66;;;17.62;37.47
56630;BME280;42502;40.732;-74.254;2022-12-10T03:54:09;101650.69;;;17.63;37.48
56630;BME280;42502;40.732;-74.254;2022-12-10T03:56:10;101657.94;;;17.64;37.37
56630;BME280;42502;40.732;-74.254;2022-12-10T03:58:11;101661.84;;;17.63;37.37
56630;BME280;42502;40.732;-74.254;2022-12-10T04:00:12;101659.38;;;17.61;37.63
56630;BME280;42502;40.732;-74.254;2022-12-10T04:02:13;101653.28;;;17.59;37.00
56630;BME280;42502;40.732;-74.254;2022-12-10T04:04:14;101655.25;;;17.58;37.28
56630;BME280;42502;40.732;-74.254;2022-12-10T04:06:17;101661.66;;;17.59;37.35
56630;BME280;42502;40.732;-74.254;2022-12-10T04:08:18;101662.28;;;17.56;37.59
56630;BME280;42502;40.732;-74.254;2022-12-10T04:10:19;101652.53;;;17.53;37.52
56630;BME280;42502;40.732;-74.254;2022-12-10T04:12:20;101661.47;;;17.55;37.35
56630;BME280;42502;40.732;-74.254;2022-12-10T04:14:21;101662.28;;;17.56;37.31
56630;BME280;42502;40.732;-74.254;2022-12-10T04:16:41;101652.22;;;17.55;36.97
56630;BME280;42502;40.732;-74.254;2022-12-10T04:18:42;101651.91;;;17.56;37.66
56630;BME280;42502;40.732;-74.254;2022-12-10T04:20:43;101648.41;;;17.51;37.63
56630;BME280;42502;40.732;-74.254;2022-12-10T04:23:02;101654.22;;;17.54;37.60
56630;BME280;42502;40.732;-74.254;2022-12-10T04:25:21;101658.44;;;17.52;37.62
56630;BME280;42502;40.732;-74.254;2022-12-10T04:27:41;101650.91;;;17.52;37.33
56630;BME280;42502;40.732;-74.254;2022-12-10T04:29:42;101646.44;;;17.51;37.59
56630;BME280;42502;40.732;-74.254;2022-12-10T04:31:42;101648.72;;;17.49;37.40
56630;BME280;42502;40.732;-74.254;2022-12-10T04:33:43;101642.28;;;17.49;37.74
56630;BME280;42502;40.732;-74.254;2022-12-10T04:35:44;101641.28;;;17.45;37.34
56630;BME280;42502;40.732;-74.254;2022-12-10T04:37:45;101640.13;;;17.46;37.75
56630;BME280;42502;40.732;-74.254;2022-12-10T04:39:47;101630.72;;;17.42;37.66
56630;BME280;42502;40.732;-74.254;2022-12-10T04:41:52;101636.50;;;17.45;37.60
56630;BME280;42502;40.732;-74.254;2022-12-10T04:43:53;101638.47;;;17.45;37.72
56630;BME280;42502;40.732;-74.254;2022-12-10T04:45:55;101635.47;;;17.41;37.49
56630;BME280;42502;40.732;-74.254;2022-12-10T04:47:59;101635.16;;;17.43;37.48
56630;BME280;42502;40.732;-74.254;2022-12-10T04:50:00;101635.16;;;17.43;37.27
56630;BME280;42502;40.732;-74.254;2022-12-10T04:52:04;101629.06;;;17.40;37.61
56630;BME280;42502;40.732;-74.254;2022-12-10T04:54:06;101637.44;;;17.40;37.54
56630;BME280;42502;40.732;-74.254;2022-12-10T04:56:19;101629.38;;;17.39;37.45
56630;BME280;42502;40.732;-74.254;2022-12-10T04:58:20;101629.13;;;17.35;37.36
56630;BME280;42502;40.732;-74.254;2022-12-10T05:00:21;101633.28;;;17.38;37.21
56630;BME280;42502;40.732;-74.254;2022-12-10T05:02:25;101626.88;;;17.37;37.33
56630;BME280;42502;40.732;-74.254;2022-12-10T05:04:26;101623.88;;;17.34;37.47
56630;BME280;42502;40.732;-74.254;2022-12-10T05:06:27;101623.88;;;17.34;37.16
56630;BME280;42502;40.732;-74.254;2022-12-10T05:08:31;101622.22;;;17.33;37.30
56630;BME280;42502;40.732;-74.254;2022-12-10T05:10:34;101625.84;;;17.33;37.56
56630;BME280;42502;40.732;-74.254;2022-12-10T05:12:41;101626.47;;;17.30;37.32
56630;BME280;42502;40.732;-74.254;2022-12-10T05:14:42;101627.81;;;17.33;37.17
56630;BME280;42502;40.732;-74.254;2022-12-10T05:16:52;101634.22;;;17.33;37.38
56630;BME280;42502;40.732;-74.254;2022-12-10T05:18:54;101628.13;;;17.31;37.19
56630;BME280;42502;40.732;-74.254;2022-12-10T05:20:59;101628.44;;;17.30;37.39
56630;BME280;42502;40.732;-74.254;2022-12-10T05:23:00;101624.59;;;17.26;37.13
56630;BME280;42502;40.732;-74.254;2022-12-10T05:25:19;101601.94;;;17.13;37.22
56630;BME280;42502;40.732;-74.254;2022-12-10T05:27:20;101615.91;;;17.27;37.35
56630;BME280;42502;40.732;-74.254;2022-12-10T05:29:21;101617.13;;;17.21;37.22
56630;BME280;42502;40.732;-74.254;2022-12-10T05:31:27;101617.34;;;17.25;37.35
56630;BME280;42502;40.732;-74.254;2022-12-10T05:33:28;101619.63;;;17.22;37.31
56630;BME280;42502;40.732;-74.254;2022-12-10T05:35:29;101619.13;;;17.20;37.13
56630;BME280;42502;40.732;-74.254;2022-12-10T05:37:30;101608.25;;;17.19;37.45
56630;BME280;42502;40.732;-74.254;2022-12-10T05:39:31;101623.53;;;17.21;37.16
56630;BME280;42502;40.732;-74.254;2022-12-10T05:41:35;101620.53;;;17.18;37.29
56630;BME280;42502;40.732;-74.254;2022-12-10T05:43:37;101619.13;;;17.20;37.30
56630;BME280;42502;40.732;-74.254;2022-12-10T05:45:38;101622.72;;;17.21;36.98
56630;BME280;42502;40.732;-74.254;2022-12-10T05:47:39;101627.81;;;17.19;37.33
56630;BME280;42502;40.732;-74.254;2022-12-10T05:49:40;101625.81;;;17.19;37.17
56630;BME280;42502;40.732;-74.254;2022-12-10T05:51:40;101623.03;;;17.19;37.18
56630;BME280;42502;40.732;-74.254;2022-12-10T05:53:45;101618.19;;;17.11;37.39
56630;BME280;42502;40.732;-74.254;2022-12-10T05:55:45;101622.84;;;17.16;37.25
56630;BME280;42502;40.732;-74.254;2022-12-10T05:57:51;101610.41;;;17.08;37.12
56630;BME280;42502;40.732;-74.254;2022-12-10T05:59:52;101615.38;;;17.11;37.12
56630;BME280;42502;40.732;-74.254;2022-12-10T06:01:53;101615.38;;;17.11;36.97
56630;BME280;42502;40.732;-74.254;2022-12-10T06:03:54;101617.31;;;17.11;37.04
56630;BME280;42502;40.732;-74.254;2022-12-10T06:05:56;101618.19;;;17.11;37.20
56630;BME280;42502;40.732;-74.254;2022-12-10T06:07:57;101614.53;;;17.11;37.28
56630;BME280;42502;40.732;-74.254;2022-12-10T06:09:58;101614.84;;;17.09;36.77
56630;BME280;42502;40.732;-74.254;2022-12-10T06:11:59;101611.84;;;17.05;37.19
56630;BME280;42502;40.732;-74.254;2022-12-10T06:14:00;101609.38;;;17.04;37.15
56630;BME280;42502;40.732;-74.254;2022-12-10T06:16:06;101618.25;;;17.06;37.09
56630;BME280;42502;40.732;-74.254;2022-12-10T06:18:08;101607.19;;;17.01;36.77
56630;BME280;42502;40.732;-74.254;2022-12-10T06:20:14;101605.53;;;17.00;37.17
56630;BME280;42502;40.732;-74.254;2022-12-10T06:22:15;101623.31;;;17.04;37.03
56630;BME280;42502;40.732;-74.254;2022-12-10T06:24:16;101614.72;;;17.00;36.93
56630;BME280;42502;40.732;-74.254;2022-12-10T06:26:20;101615.88;;;16.99;37.22
56630;BME280;42502;40.732;-74.254;2022-12-10T06:28:21;101618.88;;;17.03;36.87
56630;BME280;42502;40.732;-74.254;2022-12-10T06:30:22;101618.66;;;16.99;37.35
56630;BME280;42502;40.732;-74.254;2022-12-10T06:32:23;101622.28;;;17.00;36.78
56630;BME280;42502;40.732;-74.254;2022-12-10T06:34:25;101630.13;;;16.98;37.05
56630;BME280;42502;40.732;-74.254;2022-12-10T06:36:28;101624.00;;;16.96;37.12
56630;BME280;42502;40.732;-74.254;2022-12-10T06:38:29;101631.78;;;16.99;37.18
56630;BME280;42502;40.732;-74.254;2022-12-10T06:40:30;101633.75;;;16.98;36.84
56630;BME280;42502;40.732;-74.254;2022-12-10T06:42:31;101641.59;;;16.96;36.83
56630;BME280;42502;40.732;-74.254;2022-12-10T06:44:32;101645.81;;;16.94;36.97
56630;BME280;42502;40.732;-74.254;2022-12-10T06:46:33;101641.38;;;16.93;36.99
56630;BME280;42502;40.732;-74.254;2022-12-10T06:48:36;101653.06;;;16.95;36.86
56630;BME280;42502;40.732;-74.254;2022-12-10T06:50:37;101629.63;;;16.77;36.88
56630;BME280;42502;40.732;-74.254;2022-12-10T06:52:38;101653.69;;;16.92;36.81
56630;BME280;42502;40.732;-74.254;2022-12-10T06:54:39;101659.28;;;16.92;36.92
56630;BME280;42502;40.732;-74.254;2022-12-10T06:56:40;101657.59;;;16.91;36.55
56630;BME280;42502;40.732;-74.254;2022-12-10T06:58:41;101654.81;;;16.91;36.58
56630;BME280;42502;40.732;-74.254;2022-12-10T07:00:42;101659.03;;;16.88;36.74
56630;BME280;42502;40.732;-74.254;2022-12-10T07:02:43;101651.53;;;16.83;36.99
56630;BME280;42502;40.732;-74.254;2022-12-10T07:04:44;101664.06;;;16.86;36.88
56630;BME280;42502;40.732;-74.254;2022-12-10T07:06:45;101657.97;;;16.84;36.73
56630;BME280;42502;40.732;-74.254;2022-12-10T07:08:47;101655.50;;;16.82;36.91
56630;BME280;42502;40.732;-74.254;2022-12-10T07:10:50;101670.25;;;16.83;36.65
56630;BME280;42502;40.732;-74.254;2022-12-10T07:12:51;101666.66;;;16.82;36.90
56630;BME280;42502;40.732;-74.254;2022-12-10T07:14:52;101675.31;;;16.81;36.55
56630;BME280;42502;40.732;-74.254;2022-12-10T07:16:53;101659.72;;;16.80;36.61
56630;BME280;42502;40.732;-74.254;2022-12-10T07:18:55;101669.75;;;16.81;36.63
56630;BME280;42502;40.732;-74.254;2022-12-10T07:20:56;101659.50;;;16.76;36.69
56630;BME280;42502;40.732;-74.254;2022-12-10T07:22:57;101672.00;;;16.79;36.63
56630;BME280;42502;40.732;-74.254;2022-12-10T07:24:58;101664.78;;;16.78;36.96
56630;BME280;42502;40.732;-74.254;2022-12-10T07:26:59;101653.38;;;16.74;36.63
56630;BME280;42502;40.732;-74.254;2022-12-10T07:29:00;101657.28;;;16.73;36.51
56630;BME280;42502;40.732;-74.254;2022-12-10T07:31:05;101654.22;;;16.75;36.41
56630;BME280;42502;40.732;-74.254;2022-12-10T07:33:06;101660.63;;;16.75;36.67
56630;BME280;42502;40.732;-74.254;2022-12-10T07:35:08;101653.38;;;16.74;36.93
56630;BME280;42502;40.732;-74.254;2022-12-10T07:37:09;101658.13;;;16.74;36.67
56630;BME280;42502;40.732;-74.254;2022-12-10T07:39:13;101654.81;;;16.72;36.66
56630;BME280;42502;40.732;-74.254;2022-12-10T07:41:18;101653.78;;;16.67;36.60
56630;BME280;42502;40.732;-74.254;2022-12-10T07:43:19;101653.97;;;16.71;36.48
56630;BME280;42502;40.732;-74.254;2022-12-10T07:45:20;101646.75;;;16.70;36.44
56630;BME280;42502;40.732;-74.254;2022-12-10T07:47:21;101647.59;;;16.70;36.42
56630;BME280;42502;40.732;-74.254;2022-12-10T07:49:22;101647.34;;;16.67;36.74
56630;BME280;42502;40.732;-74.254;2022-12-10T07:51:29;101651.81;;;16.68;36.71
56630;BME280;42502;40.732;-74.254;2022-12-10T07:53:31;101647.34;;;16.67;36.70
56630;BME280;42502;40.732;-74.254;2022-12-10T07:55:32;101645.72;;;16.66;36.75
56630;BME280;42502;40.732;-74.254;2022-12-10T07:57:33;101645.72;;;16.66;36.46
56630;BME280;42502;40.732;-74.254;2022-12-10T07:59:34;101640.13;;;16.66;36.51
56630;BME280;42502;40.732;-74.254;2022-12-10T08:01:35;101636.59;;;16.60;36.69
56630;BME280;42502;40.732;-74.254;2022-12-10T08:03:36;101646.94;;;16.60;36.64
56630;BME280;42502;40.732;-74.254;2022-12-10T08:05:40;101640.75;;;16.63;36.46
56630;BME280;42502;40.732;-74.254;2022-12-10T08:07:44;101637.41;;;16.61;36.52
56630;BME280;42502;40.732;-74.254;2022-12-10T08:09:45;101647.75;;;16.60;36.48
56630;BME280;42502;40.732;-74.254;2022-12-10T08:11:46;101655.59;;;16.58;36.81
56630;BME280;42502;40.732;-74.254;2022-12-10T08:13:48;101638.56;;;16.60;36.49
56630;BME280;42502;40.732;-74.254;2022-12-10T08:15:49;101651.44;;;16.56;36.63
56630;BME280;42502;40.732;-74.254;2022-12-10T08:17:50;101635.53;;;16.56;36.72
56630;BME280;42502;40.732;-74.254;2022-12-10T08:19:51;101630.78;;;16.57;36.38
56630;BME280;42502;40.732;-74.254;2022-12-10T08:21:52;101626.44;;;16.50;36.58
56630;BME280;42502;40.732;-74.254;2022-12-10T08:23:54;101633.03;;;16.55;36.54
56630;BME280;42502;40.732;-74.254;2022-12-10T08:25:55;101640.59;;;16.54;36.42
56630;BME280;42502;40.732;-74.254;2022-12-10T08:27:56;101632.22;;;16.54;36.45
56630;BME280;42502;40.732;-74.254;2022-12-10T08:30:03;101624.75;;;16.49;36.26
56630;BME280;42502;40.732;-74.254;2022-12-10T08:32:04;101631.69;;;16.52;36.44
56630;BME280;42502;40.732;-74.254;2022-12-10T08:34:14;101642.63;;;16.48;36.31
56630;BME280;42502;40.732;-74.254;2022-12-10T08:36:16;101643.16;;;16.50;36.24
56630;BME280;42502;40.732;-74.254;2022-12-10T08:38:18;101636.00;;;16.44;36.43
56630;BME280;42502;40.732;-74.254;2022-12-10T08:40:18;101646.25;;;16.49;36.41
56630;BME280;42502;40.732;-74.254;2022-12-10T08:42:20;101640.44;;;16.45;36.57
56630;BME280;42502;40.732;-74.254;2022-12-10T08:44:23;101632.69;;;16.42;36.51
56630;BME280;42502;40.732;-74.254;2022-12-10T08:46:24;101644.06;;;16.46;36.64
56630;BME280;42502;40.732;-74.254;2022-12-10T08:48:27;101643.00;;;16.42;36.53
56630;BME280;42502;40.732;-74.254;2022-12-10T08:50:28;101644.94;;;16.41;36.45
56630;BME280;42502;40.732;-74.254;2022-12-10T08:52:29;101651.38;;;16.42;36.37
56630;BME280;42502;40.732;-74.254;2022-12-10T08:54:30;101652.50;;;16.41;36.33
56630;BME280;42502;40.732;-74.254;2022-12-10T08:56:31;101643.06;;;16.37;36.54
56630;BME280;42502;40.732;-74.254;2022-12-10T08:58:32;101643.91;;;16.37;36.30
56630;BME280;42502;40.732;-74.254;2022-12-10T09:00:34;101654.47;;;16.40;36.54
56630;BME280;42502;40.732;-74.254;2022-12-10T09:02:34;101660.06;;;16.40;36.15
56630;BME280;42502;40.732;-74.254;2022-12-10T09:04:35;101651.13;;;16.38;36.24
56630;BME280;42502;40.732;-74.254;2022-12-10T09:06:36;101655.06;;;16.37;36.52
56630;BME280;42502;40.732;-74.254;2022-12-10T09:08:37;101665.09;;;16.38;36.36
56630;BME280;42502;40.732;-74.254;2022-12-10T09:10:39;101666.22;;;16.37;36.45
56630;BME280;42502;40.732;-74.254;2022-12-10T09:12:40;101670.44;;;16.34;36.35
56630;BME280;42502;40.732;-74.254;2022-12-10T09:14:41;101669.31;;;16.36;36.56
56630;BME280;42502;40.732;-74.254;2022-12-10T09:16:42;101662.69;;;16.31;36.43
56630;BME280;42502;40.732;-74.254;2022-12-10T09:18:43;101661.84;;;16.31;36.41
56630;BME280;42502;40.732;-74.254;2022-12-10T09:20:44;101664.34;;;16.32;36.63
56630;BME280;42502;40.732;-74.254;2022-12-10T09:22:45;101664.66;;;16.31;36.17
56630;BME280;42502;40.732;-74.254;2022-12-10T09:24:46;101664.09;;;16.29;36.30
56630;BME280;42502;40.732;-74.254;2022-12-10T09:26:47;101671.94;;;16.27;36.39
56630;BME280;42502;40.732;-74.254;2022-12-10T09:28:49;101671.34;;;16.30;36.37
56630;BME280;42502;40.732;-74.254;2022-12-10T09:30:57;101676.91;;;16.30;36.17
56630;BME280;42502;40.732;-74.254;2022-12-10T09:32:58;101678.88;;;16.29;36.22
56630;BME280;42502;40.732;-74.254;2022-12-10T09:34:59;101673.63;;;16.28;36.46
56630;BME280;42502;40.732;-74.254;2022-12-10T09:37:00;101677.53;;;16.27;36.20
56630;BME280;42502;40.732;-74.254;2022-12-10T09:39:01;101673.91;;;16.26;36.37
56630;BME280;42502;40.732;-74.254;2022-12-10T09:43:36;101671.19;;;16.21;36.40
56630;BME280;42502;40.732;-74.254;2022-12-10T09:50:17;101684.00;;;16.22;36.40
56630;BME280;42502;40.732;-74.254;2022-12-10T09:52:21;101676.25;;;16.19;36.39
56630;BME280;42502;40.732;-74.254;2022-12-10T09:54:45;101692.97;;;16.19;36.07
56630;BME280;42502;40.732;-74.254;2022-12-10T09:56:50;101690.19;;;16.19;36.51
56630;BME280;42502;40.732;-74.254;2022-12-10T09:58:55;101690.78;;;16.16;36.25
56630;BME280;42502;40.732;-74.254;2022-12-10T10:01:02;101692.16;;;16.19;36.20
56630;BME280;42502;40.732;-74.254;2022-12-10T10:03:14;101694.38;;;16.16;36.35
56630;BME280;42502;40.732;-74.254;2022-12-10T10:05:26;101705.84;;;16.15;36.56
56630;BME280;42502;40.732;-74.254;2022-12-10T10:07:29;101701.09;;;16.15;36.02
56630;BME280;42502;40.732;-74.254;2022-12-10T10:09:32;101704.19;;;16.14;36.33
56630;BME280;42502;40.732;-74.254;2022-12-10T10:11:37;101707.81;;;16.14;36.57
56630;BME280;42502;40.732;-74.254;2022-12-10T10:13:45;101699.19;;;16.11;36.45
56630;BME280;42502;40.732;-74.254;2022-12-10T10:15:47;101704.50;;;16.12;36.47
56630;BME280;42502;40.732;-74.254;2022-12-10T10:17:49;101697.31;;;16.06;36.25
56630;BME280;42502;40.732;-74.254;2022-12-10T10:19:53;101707.84;;;16.09;35.95
56630;BME280;42502;40.732;-74.254;2022-12-10T10:21:54;101710.34;;;16.11;36.11
56630;BME280;42502;40.732;-74.254;2022-12-10T10:23:56;101720.16;;;16.08;36.60
56630;BME280;42502;40.732;-74.254;2022-12-10T10:25:57;101714.56;;;16.08;36.29
56630;BME280;42502;40.732;-74.254;2022-12-10T10:27:58;101728.50;;;16.08;36.30
56630;BME280;42502;40.732;-74.254;2022-12-10T10:30:02;101722.38;;;16.06;36.19
56630;BME280;42502;40.732;-74.254;2022-12-10T10:32:25;101724.34;;;16.06;36.20
56630;BME280;42502;40.732;-74.254;2022-12-10T10:34:27;101724.06;;;16.07;36.15
56630;BME280;42502;40.732;-74.254;2022-12-10T10:36:34;101723.53;;;16.05;36.15
56630;BME280;42502;40.732;-74.254;2022-12-10T10:38:35;101726.31;;;16.05;36.28
56630;BME280;42502;40.732;-74.254;2022-12-10T10:40:40;101722.97;;;16.03;36.42
56630;BME280;42502;40.732;-74.254;2022-12-10T10:42:43;101730.81;;;16.01;36.02
56630;BME280;42502;40.732;-74.254;2022-12-10T10:44:45;101730.81;;;16.01;36.36
56630;BME280;42502;40.732;-74.254;2022-12-10T10:46:51;101738.38;;;16.01;35.95
56630;BME280;42502;40.732;-74.254;2022-12-10T10:49:13;101738.97;;;15.97;36.35
56630;BME280;42502;40.732;-74.254;2022-12-10T10:51:19;101741.97;;;16.01;36.29
56630;BME280;42502;40.732;-74.254;2022-12-10T10:55:32;101745.34;;;15.98;36.24